McCammon, Idaho
Current Conditions -  °F | °C
As of 8:53 PM on Wednesday 17 Dec 2014 (Local Time) from KPIH Reporting Station
Scattered Clouds Scattered Clouds  
Wind Chill: 27°   Ceiling: Unl
Heat Index: 27°   Visibility: 10mi
Dew Point: 25°   Wind: 0mph
Humidity: 92%   Direction: NA
Pressure: 30.05"   Gusts: NA
Location:  42.65°N, 112.19°W
Report Text: KPIH 180353Z 00000KT 10SM SCT060 M03/M04 A3005 RMK AO2 SLP210 T10281039
Loading
Personal Weather Stations






























Interactive Weather Map New forecast layout! Learn more

10-Day Weather Forecast

Advertisements
Track Severe Weather on mobile